Airfield :
LOGIN :

Register | Disclaimer

   EN    FR    IT 

 










Legend :    VFR   Marginal VFR   IFR   Intensive IFR   Very Intensive IFR
Visi :
Ceiling :
>= 8 km
>= 3000ft
5 to 8 km
1000 to 3000 ft
1500m to 5 km
500 to 1000 ft
800 to 1500m
200 to 500 ft
< 800m
< 200 ft
Symbols :   Thunderstorms  Fog  Heavy snow  Heavy precipitations  Wind > 20 kt
SIGMETs :     Misc.  Thunderstorms  Icing  Turbulence  Mountain Waves  Volcanic Ashes







- Airport Elevation : 46 ft
- IATA code : SNN


EINN - Shannon

CURRENT METAR :
  • 241330Z 23005KT 9999 SCT018CB 15/13 Q1016 NOSIG

EXPIRED METARs :
  • 241300Z 02002KT 7000 -SHRA FEW015 SCT018CB BKN050 15/12 Q1016 RESHRA NOSIG
  • 241230Z 17007KT 9999 -SHRA SCT021 SCT050 17/12 Q1016 NOSIG
  • 241200Z 13005KT 9999 FEW022 BKN150 16/13 Q1015 NOSIG
  • 241130Z 12006KT 9999 FEW025 BKN150 15/12 Q1015 NOSIG
  • 241100Z 12007KT CAVOK 15/13 Q1015 NOSIG

TAF TAF EINN
Valid from the 24 at 12:00 until the 25 at 12:00 UTC


241100Z 2412/2512 26007KT 9999 FEW018
TEMPO 2412/2416 7000 -SHRA SCT018CB
TEMPO 2501/2509 3000 BR SCT005
PROB40
TEMPO 2502/2509 0300 FG BKN001
No reported NOTAMs for that airfield.



MET'MAP, your aeronautical weather chart ! - Copyright ORBIFLY December 2007 - Disclaimer

ORBIFLY MET'MAP TEAM :

Programming & Development : Alexandra Zaïnal
Concept & Development : Baudouin d'Aumeries
Co-Development & Prog : Marc-Olivier Méhu
Technical & hardware support : Manuel Goepfert

Contact : metmap@orbifly.com




SOURCES & CREDITS :

   NOAA